Terminal Aerodrome Forecast
Issued by NWS

Home | Current Version | Previous Version | Text Only | Print | Product List | Glossary On
Versions: 1 2 3 4 5 6 7 8 9 10 11 12 13
000
FTAK31 PAJN 070500
TAFAWG
TAF
PAWG 070522Z 0706/0806 14005KT P6SM FEW100 SCT200
     FM071700 31007KT P6SM OVC100
     FM072100 28007KT P6SM SCT070 OVC100
     FM080400 VRB05KT P6SM VCSH BKN060 OVC090
      AMD LTD TO CLD VIS AND WIND 0706/0715=

USA.gov is the U.S. government's official web portal to all federal, state and local government web resources and services.